createdAt,value
2023-05-25T00:01:30.703Z,4.70
2023-05-25T00:04:00.683Z,5.50
2023-05-25T00:06:29.988Z,5.40
2023-05-25T00:08:58.301Z,4.73
2023-05-25T00:11:28.163Z,5.73
2023-05-25T00:13:56.486Z,5.70
2023-05-25T00:16:24.775Z,5.13
2023-05-25T00:18:53.192Z,5.10
2023-05-25T00:21:21.490Z,5.43
2023-05-25T00:23:49.768Z,5.17
2023-05-25T00:26:18.033Z,5.70
2023-05-25T00:28:47.676Z,5.40
2023-05-25T00:31:16.005Z,5.90
2023-05-25T00:33:44.312Z,6.33
2023-05-25T00:36:12.601Z,5.67
2023-05-25T00:38:40.929Z,5.80
2023-05-25T00:41:09.247Z,5.60
2023-05-25T00:43:37.508Z,5.60
2023-05-25T00:46:08.235Z,5.20
2023-05-25T00:48:36.720Z,5.70
2023-05-25T00:51:05.294Z,5.60
2023-05-25T00:53:34.110Z,5.53
2023-05-25T00:56:04.948Z,5.87
2023-05-25T00:58:34.938Z,5.97
2023-05-25T01:01:03.754Z,5.37
2023-05-25T01:03:37.808Z,5.27
2023-05-25T01:06:09.282Z,5.40
2023-05-25T01:08:37.606Z,5.43
2023-05-25T01:11:06.462Z,5.13
2023-05-25T01:13:38.125Z,5.17
2023-05-25T01:16:06.997Z,5.77
2023-05-25T01:18:37.643Z,4.87
2023-05-25T01:21:13.986Z,5.10
2023-05-25T01:23:44.884Z,4.77
2023-05-25T01:26:14.945Z,5.53
2023-05-25T01:28:46.519Z,5.53
2023-05-25T01:31:16.786Z,5.27
2023-05-25T01:33:45.885Z,5.37
2023-05-25T01:36:15.697Z,5.50
2023-05-25T01:38:44.111Z,5.20
2023-05-25T01:41:12.421Z,4.97
2023-05-25T01:43:40.726Z,5.00
2023-05-25T01:46:14.073Z,5.60
2023-05-25T01:48:44.817Z,5.93
2023-05-25T01:51:17.881Z,5.43
2023-05-25T01:53:52.539Z,5.83
2023-05-25T01:56:23.225Z,5.40
2023-05-25T01:58:52.384Z,5.57
2023-05-25T02:01:21.123Z,6.40
2023-05-25T02:03:49.922Z,6.27
2023-05-25T02:06:18.433Z,5.77
2023-05-25T02:08:48.078Z,6.50
2023-05-25T02:11:16.551Z,6.80
2023-05-25T02:13:44.827Z,6.70
2023-05-25T02:16:13.454Z,6.00
2023-05-25T02:18:44.715Z,5.87
2023-05-25T02:21:13.387Z,6.40
2023-05-25T02:23:41.653Z,5.90
2023-05-25T02:26:11.411Z,6.17
2023-05-25T02:28:40.792Z,6.27
2023-05-25T02:31:09.079Z,6.57
2023-05-25T02:33:37.356Z,6.73
2023-05-25T02:36:06.396Z,7.27
2023-05-25T02:38:34.685Z,7.20
2023-05-25T02:41:02.916Z,6.63
2023-05-25T02:43:32.674Z,6.90
2023-05-25T02:46:00.947Z,6.27
2023-05-25T02:48:29.250Z,6.83
2023-05-25T02:50:57.585Z,7.07
2023-05-25T02:53:25.836Z,6.77
2023-05-25T02:55:54.110Z,7.03
2023-05-25T02:58:22.425Z,7.33
2023-05-25T03:00:54.679Z,6.50
2023-05-25T03:03:23.367Z,6.63
2023-05-25T03:05:51.675Z,7.17
2023-05-25T03:08:19.976Z,6.83
2023-05-25T03:10:48.220Z,7.30
2023-05-25T03:13:16.502Z,6.87
2023-05-25T03:15:45.298Z,6.33
2023-05-25T03:18:15.164Z,6.73
2023-05-25T03:20:44.051Z,7.70
2023-05-25T03:23:12.329Z,7.40
2023-05-25T03:25:40.592Z,6.80
2023-05-25T03:28:08.876Z,6.33
2023-05-25T03:30:37.173Z,7.03
2023-05-25T03:33:05.583Z,7.33
2023-05-25T03:35:35.331Z,6.43
2023-05-25T03:38:03.558Z,7.00
2023-05-25T03:40:31.801Z,7.23
2023-05-25T03:43:00.113Z,6.97
2023-05-25T03:45:28.461Z,7.20
2023-05-25T03:47:56.865Z,6.97
2023-05-25T03:50:25.231Z,7.53
2023-05-25T03:52:54.891Z,6.60
2023-05-25T03:55:23.149Z,6.30
2023-05-25T03:57:51.638Z,6.10
2023-05-25T04:00:20.175Z,7.10
2023-05-25T04:02:48.526Z,6.70
2023-05-25T04:05:20.864Z,7.33
2023-05-25T04:07:49.210Z,7.03
2023-05-25T04:10:18.959Z,7.70
2023-05-25T04:12:47.289Z,6.73
2023-05-25T04:15:15.682Z,7.37
2023-05-25T04:17:44.118Z,7.00
2023-05-25T04:20:12.776Z,7.57
2023-05-25T04:22:41.118Z,6.73
2023-05-25T04:25:10.452Z,7.70
2023-05-25T04:27:42.908Z,6.77
2023-05-25T04:30:12.355Z,6.77
2023-05-25T04:32:43.340Z,6.17
2023-05-25T04:35:14.615Z,7.03
2023-05-25T04:37:43.103Z,7.00
2023-05-25T04:40:13.990Z,6.90
2023-05-25T04:42:45.018Z,6.20
2023-05-25T04:45:17.573Z,6.33
2023-05-25T04:47:47.466Z,7.13
2023-05-25T04:50:15.998Z,6.63
2023-05-25T04:52:44.341Z,6.73
2023-05-25T04:55:12.702Z,7.63
2023-05-25T04:57:41.123Z,6.67
2023-05-25T05:00:12.605Z,6.47
2023-05-25T05:02:41.623Z,11.97
2023-05-25T05:05:10.550Z,7.07
2023-05-25T05:07:39.278Z,6.40
2023-05-25T05:10:08.183Z,6.23
2023-05-25T05:12:36.662Z,5.77
2023-05-25T05:15:05.165Z,7.00
2023-05-25T05:17:34.893Z,6.20
2023-05-25T05:20:04.698Z,6.27
2023-05-25T05:22:34.871Z,7.03
2023-05-25T05:25:03.175Z,6.80
2023-05-25T05:27:31.523Z,6.00
2023-05-25T05:29:59.904Z,6.80
2023-05-25T05:32:28.363Z,7.13
2023-05-25T05:34:58.103Z,6.50
2023-05-25T05:37:26.389Z,6.40
2023-05-25T05:39:54.812Z,6.63
2023-05-25T05:42:23.165Z,6.30
2023-05-25T05:44:51.476Z,7.27
2023-05-25T05:47:19.842Z,8.17
2023-05-25T05:49:48.404Z,6.93
2023-05-25T05:52:18.136Z,6.10
2023-05-25T05:54:46.728Z,6.67
2023-05-25T05:57:15.054Z,6.87
2023-05-25T05:59:43.621Z,6.53
2023-05-25T06:02:13.609Z,7.07
2023-05-25T06:04:42.155Z,6.77
2023-05-25T06:07:10.411Z,6.67
2023-05-25T06:09:40.147Z,7.23
2023-05-25T06:12:08.928Z,8.40
2023-05-25T06:14:37.254Z,7.53
2023-05-25T06:17:05.852Z,7.80
2023-05-25T06:19:34.259Z,8.20
2023-05-25T06:22:02.547Z,7.27
2023-05-25T06:24:31.480Z,7.93
2023-05-25T06:27:03.218Z,6.90
2023-05-25T06:29:31.594Z,7.20
2023-05-25T06:31:59.902Z,7.27
2023-05-25T06:34:28.277Z,7.10
2023-05-25T06:36:56.712Z,7.60
2023-05-25T06:39:25.036Z,7.90
2023-05-25T06:41:54.092Z,6.83
2023-05-25T06:44:23.794Z,7.50
2023-05-25T06:46:52.197Z,7.60
2023-05-25T06:49:20.590Z,7.10
2023-05-25T06:51:49.030Z,6.77
2023-05-25T06:54:17.312Z,6.97
2023-05-25T06:56:45.637Z,6.87
2023-05-25T06:59:13.952Z,7.17
2023-05-25T07:01:43.644Z,5.60
2023-05-25T07:04:11.935Z,5.80
2023-05-25T07:06:40.305Z,5.33
2023-05-25T07:09:08.677Z,5.63
2023-05-25T07:11:36.916Z,5.77
2023-05-25T07:14:05.241Z,5.77
2023-05-25T07:16:34.370Z,5.83
2023-05-25T07:19:04.062Z,5.93
2023-05-25T07:21:33.261Z,6.23
2023-05-25T07:24:01.797Z,6.80
2023-05-25T07:26:30.150Z,6.50
2023-05-25T07:28:58.409Z,5.20
2023-05-25T07:31:26.783Z,5.73
2023-05-25T07:33:55.599Z,5.70
2023-05-25T07:36:25.540Z,6.27
2023-05-25T07:38:53.850Z,6.17
2023-05-25T07:41:22.103Z,5.87
2023-05-25T07:43:52.232Z,6.37
2023-05-25T07:46:25.120Z,5.87
2023-05-25T07:48:54.736Z,6.20
2023-05-25T07:51:26.355Z,6.57
2023-05-25T07:53:57.068Z,6.37
2023-05-25T07:56:25.368Z,6.50
2023-05-25T07:58:53.634Z,5.53
2023-05-25T08:01:24.485Z,5.30
2023-05-25T08:06:22.377Z,6.07
2023-05-25T08:08:50.702Z,5.50
2023-05-25T08:11:23.878Z,5.97
2023-05-25T08:13:52.195Z,6.17
2023-05-25T08:16:20.656Z,5.80
2023-05-25T08:18:48.965Z,6.00
2023-05-25T08:21:17.188Z,5.60
2023-05-25T08:23:45.912Z,6.13
2023-05-25T08:26:31.722Z,6.43
2023-05-25T08:29:04.160Z,5.20
2023-05-25T08:31:33.226Z,5.53
2023-05-25T08:34:01.931Z,5.13
2023-05-25T08:36:30.378Z,4.60
2023-05-25T08:38:58.607Z,5.30
2023-05-25T08:41:26.896Z,5.73
2023-05-25T08:43:55.260Z,5.50
2023-05-25T08:46:31.183Z,5.37
2023-05-25T08:49:02.310Z,5.90
2023-05-25T08:51:32.426Z,5.17
2023-05-25T08:54:02.770Z,5.03
2023-05-25T08:56:32.668Z,5.80
2023-05-25T08:59:06.734Z,5.30
2023-05-25T09:01:39.846Z,5.53
2023-05-25T09:04:08.422Z,5.03
2023-05-25T09:06:38.491Z,5.43
2023-05-25T09:09:07.506Z,5.83
2023-05-25T09:11:40.396Z,5.17
2023-05-25T09:14:09.948Z,5.30
2023-05-25T09:16:39.797Z,5.83
2023-05-25T09:19:08.152Z,5.60
2023-05-25T09:21:36.856Z,5.17
2023-05-25T09:24:05.315Z,5.60
2023-05-25T09:26:33.747Z,5.03
2023-05-25T09:29:02.683Z,5.13
2023-05-25T09:31:31.229Z,8.40
2023-05-25T09:34:01.028Z,6.10
2023-05-25T09:36:29.429Z,4.93
2023-05-25T09:38:58.094Z,4.47
2023-05-25T09:41:29.944Z,3.87
2023-05-25T09:44:10.575Z,4.10
2023-05-25T09:46:39.784Z,4.30
2023-05-25T09:49:10.941Z,4.60
2023-05-25T09:51:39.659Z,3.80
2023-05-25T09:54:12.202Z,4.40
2023-05-25T09:56:41.232Z,4.00
2023-05-25T09:59:09.563Z,3.87
2023-05-25T10:01:37.833Z,4.10
2023-05-25T10:04:06.184Z,3.97
2023-05-25T10:06:36.045Z,4.40
2023-05-25T10:09:05.009Z,4.00
2023-05-25T10:11:35.081Z,3.80
2023-05-25T10:14:07.295Z,3.90
2023-05-25T10:16:36.122Z,3.87
2023-05-25T10:19:06.455Z,3.87
2023-05-25T10:21:37.011Z,3.53
2023-05-25T10:24:06.529Z,3.47
2023-05-25T10:26:36.895Z,3.70
2023-05-25T10:29:05.688Z,4.32
2023-05-25T10:31:34.129Z,3.30
2023-05-25T10:34:03.030Z,3.40
2023-05-25T10:36:31.716Z,3.63
2023-05-25T10:39:02.504Z,3.85
2023-05-25T10:41:30.835Z,3.63
2023-05-25T10:43:59.222Z,3.67
2023-05-25T10:46:27.591Z,5.05
2023-05-25T10:49:02.089Z,3.35
2023-05-25T10:51:38.841Z,3.97
2023-05-25T10:54:08.979Z,3.80
2023-05-25T10:56:37.188Z,3.60
2023-05-25T10:59:05.585Z,3.80
2023-05-25T11:01:34.690Z,3.47
2023-05-25T11:04:18.296Z,3.38
2023-05-25T11:07:05.491Z,3.70
2023-05-25T11:09:36.812Z,3.60
2023-05-25T11:12:06.523Z,3.30
2023-05-25T11:14:37.709Z,3.70
2023-05-25T11:17:07.986Z,3.85
2023-05-25T11:19:47.870Z,3.50
2023-05-25T11:22:20.376Z,3.65
2023-05-25T11:24:50.104Z,4.00
2023-05-25T11:27:23.805Z,3.75
2023-05-25T11:29:52.719Z,3.65
2023-05-25T11:32:21.198Z,3.63
2023-05-25T11:34:49.822Z,4.15
2023-05-25T11:37:21.219Z,4.20
2023-05-25T11:39:51.581Z,4.00
2023-05-25T11:42:23.630Z,4.40
2023-05-25T11:44:53.503Z,4.40
2023-05-25T11:47:25.813Z,4.10
2023-05-25T11:49:57.260Z,4.38
2023-05-25T11:52:25.622Z,4.47
2023-05-25T11:54:55.220Z,3.75
2023-05-25T11:57:25.120Z,4.38
2023-05-25T11:59:54.325Z,4.00
2023-05-25T12:02:23.067Z,3.97
2023-05-25T12:04:55.108Z,3.83
2023-05-25T12:07:23.518Z,3.47
2023-05-25T12:09:51.890Z,3.92
2023-05-25T12:12:21.714Z,4.28
2023-05-25T12:14:50.143Z,4.18
2023-05-25T12:17:19.438Z,3.55
2023-05-25T12:19:47.849Z,3.78
2023-05-25T12:22:16.589Z,4.18
2023-05-25T12:24:44.885Z,3.95
2023-05-25T12:27:19.706Z,3.85
2023-05-25T12:29:49.482Z,3.33
2023-05-25T12:32:17.934Z,4.00
2023-05-25T12:34:46.954Z,3.97
2023-05-25T12:37:21.959Z,3.80
2023-05-25T12:39:51.293Z,3.85
2023-05-25T12:42:19.640Z,4.00
2023-05-25T12:44:49.979Z,3.53
2023-05-25T12:47:19.941Z,4.03
2023-05-25T12:49:51.261Z,3.90
2023-05-25T12:52:35.456Z,3.83
2023-05-25T12:55:18.586Z,4.13
2023-05-25T12:57:47.054Z,4.07
2023-05-25T13:00:16.949Z,4.35
2023-05-25T13:02:49.609Z,3.90
2023-05-25T13:05:19.530Z,4.18
2023-05-25T13:07:47.886Z,3.75
2023-05-25T13:10:17.575Z,3.92
2023-05-25T13:12:46.361Z,4.18
2023-05-25T13:15:16.279Z,3.67
2023-05-25T13:17:44.625Z,4.07
2023-05-25T13:20:18.100Z,4.22
2023-05-25T13:22:46.910Z,4.50
2023-05-25T13:25:15.550Z,3.70
2023-05-25T13:27:45.636Z,4.20
2023-05-25T13:30:14.790Z,3.80
2023-05-25T13:32:43.688Z,3.72
2023-05-25T13:35:18.312Z,3.85
2023-05-25T13:37:47.992Z,3.60
2023-05-25T13:40:16.764Z,3.92
2023-05-25T13:42:45.002Z,4.50
2023-05-25T13:45:13.983Z,4.00
2023-05-25T13:47:43.479Z,4.50
2023-05-25T13:50:12.455Z,3.88
2023-05-25T13:52:40.715Z,3.92
2023-05-25T13:55:10.600Z,4.80
2023-05-25T13:57:38.852Z,4.43
2023-05-25T14:00:08.433Z,4.55
2023-05-25T14:02:37.143Z,4.70
2023-05-25T14:05:05.765Z,4.60
2023-05-25T14:07:34.155Z,4.40
2023-05-25T14:10:02.492Z,4.85
2023-05-25T14:12:32.239Z,4.38
2023-05-25T14:15:00.560Z,4.70
2023-05-25T14:17:28.838Z,4.88
2023-05-25T14:19:58.501Z,5.18
2023-05-25T14:22:27.883Z,4.70
2023-05-25T14:24:56.287Z,4.93
2023-05-25T14:27:24.565Z,5.05
2023-05-25T14:29:54.172Z,5.00
2023-05-25T14:32:22.460Z,4.93
2023-05-25T14:34:50.920Z,5.55
2023-05-25T14:37:19.194Z,5.32
2023-05-25T14:39:47.490Z,4.50
2023-05-25T14:42:16.343Z,4.88
2023-05-25T14:44:44.625Z,5.00
2023-05-25T14:47:14.309Z,5.28
2023-05-25T14:49:42.566Z,4.90
2023-05-25T14:52:10.840Z,4.90
2023-05-25T14:54:43.926Z,4.72
2023-05-25T14:57:12.565Z,5.00
2023-05-25T14:59:40.846Z,5.47
2023-05-25T15:02:09.345Z,5.03
2023-05-25T15:04:39.031Z,4.40
2023-05-25T15:07:07.320Z,5.40
2023-05-25T15:09:36.604Z,5.45
2023-05-25T15:12:04.986Z,4.20
2023-05-25T15:14:33.274Z,4.63
2023-05-25T15:17:01.671Z,4.53
2023-05-25T15:19:30.016Z,5.32
2023-05-25T15:21:59.702Z,4.65
2023-05-25T15:24:27.995Z,5.20
2023-05-25T15:26:56.348Z,5.30
2023-05-25T15:29:24.778Z,5.45
2023-05-25T15:31:53.634Z,4.72
2023-05-25T15:34:22.007Z,5.00
2023-05-25T15:36:50.214Z,4.68
2023-05-25T15:39:19.846Z,4.90
2023-05-25T15:41:48.045Z,4.10
2023-05-25T15:44:16.295Z,4.65
2023-05-25T15:46:44.608Z,5.03
2023-05-25T15:49:12.956Z,5.10
2023-05-25T15:51:42.757Z,5.72
2023-05-25T15:54:14.116Z,5.13
2023-05-25T15:56:44.450Z,4.63
2023-05-25T15:59:13.240Z,5.18
2023-05-25T16:01:41.696Z,5.18
2023-05-25T16:04:10.202Z,5.00
2023-05-25T16:06:39.050Z,4.68
2023-05-25T16:09:07.551Z,4.60
2023-05-25T16:11:35.908Z,4.82
2023-05-25T16:14:05.506Z,5.72
2023-05-25T16:16:33.832Z,4.53
2023-05-25T16:19:02.293Z,4.57
2023-05-25T16:21:30.711Z,4.88
2023-05-25T16:23:58.971Z,4.55
2023-05-25T16:26:27.296Z,5.35
2023-05-25T16:28:55.716Z,5.10
2023-05-25T16:31:27.270Z,5.20
2023-05-25T16:33:55.598Z,4.88
2023-05-25T16:36:25.268Z,5.00
2023-05-25T16:38:54.772Z,5.00
2023-05-25T16:41:23.111Z,6.18
2023-05-25T16:43:52.037Z,6.43
2023-05-25T16:46:21.098Z,4.88
2023-05-25T16:48:50.818Z,5.35
2023-05-25T16:51:19.070Z,5.28
2023-05-25T16:53:47.397Z,5.78
2023-05-25T16:56:15.721Z,5.47
2023-05-25T16:58:44.025Z,5.00
2023-05-25T17:01:12.567Z,5.47
2023-05-25T17:03:41.164Z,5.45
2023-05-25T17:06:11.079Z,5.57
2023-05-25T17:08:39.340Z,4.82
2023-05-25T17:11:07.583Z,5.40
2023-05-25T17:13:35.877Z,5.38
2023-05-25T17:16:04.193Z,5.25
2023-05-25T17:18:32.531Z,5.90
2023-05-25T17:21:01.846Z,5.22
2023-05-25T17:23:31.531Z,5.20
2023-05-25T17:25:59.808Z,4.97
2023-05-25T17:28:28.818Z,5.32
2023-05-25T17:30:58.819Z,5.38
2023-05-25T17:33:27.164Z,5.03
2023-05-25T17:35:55.427Z,5.15
2023-05-25T17:38:23.709Z,5.15
2023-05-25T17:40:53.295Z,4.80
2023-05-25T17:43:21.571Z,5.43
2023-05-25T17:45:49.910Z,4.70
2023-05-25T17:48:18.269Z,5.13
2023-05-25T17:50:46.545Z,5.30
2023-05-25T17:53:14.789Z,5.00
2023-05-25T17:55:43.161Z,5.10
2023-05-25T17:58:12.938Z,4.85
2023-05-25T18:00:41.285Z,4.72
2023-05-25T18:03:09.828Z,4.90
2023-05-25T18:05:38.123Z,5.20
2023-05-25T18:08:06.387Z,5.38
2023-05-25T18:10:34.789Z,4.95
2023-05-25T18:13:03.140Z,4.43
2023-05-25T18:15:32.818Z,5.70
2023-05-25T18:18:03.554Z,4.85
2023-05-25T18:20:31.893Z,5.28
2023-05-25T18:23:00.432Z,5.22
2023-05-25T18:25:28.717Z,5.28
2023-05-25T18:27:56.993Z,5.28
2023-05-25T18:30:25.275Z,5.57
2023-05-25T18:32:54.955Z,5.05
2023-05-25T18:35:23.351Z,6.28
2023-05-25T18:37:51.711Z,5.18
2023-05-25T18:40:20.002Z,5.60
2023-05-25T18:42:48.309Z,5.75
2023-05-25T18:45:16.625Z,5.55
2023-05-25T18:47:44.967Z,5.28
2023-05-25T18:50:15.264Z,5.32
2023-05-25T18:52:43.554Z,6.05
2023-05-25T18:55:12.018Z,5.85
2023-05-25T18:57:40.304Z,5.10
2023-05-25T19:00:09.367Z,6.00
2023-05-25T19:02:38.660Z,5.80
2023-05-25T19:05:07.473Z,5.90
2023-05-25T19:07:50.755Z,6.57
2023-05-25T19:10:26.405Z,6.20
2023-05-25T19:12:54.871Z,6.37
2023-05-25T19:15:23.347Z,6.60
2023-05-25T19:17:52.075Z,6.27
2023-05-25T19:20:20.527Z,6.17
2023-05-25T19:22:50.213Z,6.33
2023-05-25T19:25:18.502Z,6.40
2023-05-25T19:27:46.758Z,6.90
2023-05-25T19:30:15.114Z,6.43
2023-05-25T19:32:43.586Z,5.93
2023-05-25T19:35:12.221Z,5.90
2023-05-25T19:37:41.201Z,6.30
2023-05-25T19:40:13.149Z,5.93
2023-05-25T19:42:41.698Z,5.50
2023-05-25T19:45:10.308Z,6.20
2023-05-25T19:47:38.680Z,6.23
2023-05-25T19:50:07.383Z,6.57
2023-05-25T19:52:35.738Z,5.70
2023-05-25T19:55:04.040Z,6.80
2023-05-25T19:57:33.643Z,6.00
2023-05-25T20:00:01.951Z,5.73
2023-05-25T20:02:30.338Z,6.40
2023-05-25T20:04:58.677Z,5.87
2023-05-25T20:07:27.049Z,5.90
2023-05-25T20:09:55.402Z,5.93
2023-05-25T20:12:23.658Z,5.57
2023-05-25T20:14:54.485Z,5.40
2023-05-25T20:17:22.759Z,5.40
2023-05-25T20:19:51.045Z,6.70
2023-05-25T20:22:19.345Z,6.10
2023-05-25T20:24:47.602Z,5.77
2023-05-25T20:27:15.896Z,5.60
2023-05-25T20:29:44.313Z,6.33
2023-05-25T20:32:14.015Z,6.00
2023-05-25T20:34:42.607Z,6.77
2023-05-25T20:37:10.915Z,5.87
2023-05-25T20:39:39.225Z,5.93
2023-05-25T20:42:07.603Z,6.50
2023-05-25T20:44:35.861Z,6.67
2023-05-25T20:47:04.119Z,6.10
2023-05-25T20:49:33.695Z,5.70
2023-05-25T20:52:02.196Z,6.07
2023-05-25T20:54:30.624Z,6.07
2023-05-25T20:57:00.613Z,6.00
2023-05-25T20:59:31.640Z,5.97
2023-05-25T21:01:59.989Z,5.63
2023-05-25T21:04:29.284Z,5.60
2023-05-25T21:07:00.761Z,5.30
2023-05-25T21:09:29.045Z,5.87
2023-05-25T21:11:57.343Z,5.80
2023-05-25T21:14:25.627Z,5.70
2023-05-25T21:16:53.840Z,6.27
2023-05-25T21:19:22.069Z,5.50
2023-05-25T21:21:50.411Z,5.23
2023-05-25T21:24:20.098Z,4.83
2023-05-25T21:26:48.356Z,4.80
2023-05-25T21:29:16.616Z,5.97
2023-05-25T21:31:45.049Z,5.87
2023-05-25T21:34:13.383Z,5.77
2023-05-25T21:36:41.645Z,5.27
2023-05-25T21:39:09.898Z,5.00
2023-05-25T21:41:39.502Z,5.60
2023-05-25T21:44:07.784Z,5.13
2023-05-25T21:46:36.357Z,5.67
2023-05-25T21:49:04.660Z,5.13
2023-05-25T21:51:33.018Z,5.03
2023-05-25T21:54:01.382Z,6.07
2023-05-25T21:56:29.652Z,5.13
2023-05-25T21:58:59.322Z,4.97
2023-05-25T22:01:27.610Z,5.70
2023-05-25T22:03:56.491Z,5.70
2023-05-25T22:06:24.793Z,6.03
2023-05-25T22:08:53.030Z,5.00
2023-05-25T22:11:22.221Z,5.90
2023-05-25T22:13:50.502Z,6.23
2023-05-25T22:16:20.129Z,5.73
2023-05-25T22:18:48.506Z,5.70
2023-05-25T22:21:16.809Z,5.17
2023-05-25T22:23:45.098Z,6.00
2023-05-25T22:26:13.347Z,5.63
2023-05-25T22:28:41.601Z,6.17
2023-05-25T22:31:09.920Z,5.83
2023-05-25T22:33:39.584Z,5.63
2023-05-25T22:36:08.006Z,5.60
2023-05-25T22:38:36.582Z,5.73
2023-05-25T22:41:04.880Z,5.83
2023-05-25T22:43:33.261Z,5.30
2023-05-25T22:46:01.861Z,5.17
2023-05-25T22:48:30.155Z,5.27
2023-05-25T22:50:59.970Z,6.30
2023-05-25T22:53:28.231Z,5.53
2023-05-25T22:55:56.462Z,6.57
2023-05-25T22:58:24.689Z,5.63
2023-05-25T23:00:52.957Z,5.40
2023-05-25T23:03:21.292Z,5.83
2023-05-25T23:05:49.684Z,5.23
2023-05-25T23:08:19.341Z,5.43
2023-05-25T23:10:47.629Z,5.90
2023-05-25T23:13:16.653Z,5.93
2023-05-25T23:15:45.158Z,6.20
2023-05-25T23:18:13.612Z,5.83
2023-05-25T23:20:42.067Z,6.70
2023-05-25T23:23:10.483Z,5.93
2023-05-25T23:25:40.105Z,5.83
2023-05-25T23:28:08.354Z,6.10
2023-05-25T23:30:36.613Z,6.53
2023-05-25T23:33:04.906Z,6.30
2023-05-25T23:35:33.180Z,5.50
2023-05-25T23:38:01.774Z,5.83
2023-05-25T23:40:30.109Z,5.90
2023-05-25T23:42:59.749Z,5.87
2023-05-25T23:45:28.228Z,6.40
2023-05-25T23:50:24.769Z,5.23
2023-05-25T23:52:53.016Z,5.33
2023-05-25T23:55:21.414Z,5.97
2023-05-25T23:57:49.731Z,6.03
